createdAt,value
2022-07-30T00:03:01.650Z,97.90
2022-07-30T00:06:03.538Z,98.08
2022-07-30T00:09:05.301Z,98.38
2022-07-30T00:12:08.480Z,98.46
2022-07-30T00:15:10.331Z,98.56
2022-07-30T00:18:12.548Z,98.63
2022-07-30T00:21:20.244Z,98.63
2022-07-30T00:24:36.499Z,98.48
2022-07-30T00:27:38.243Z,97.67
2022-07-30T00:30:40.780Z,97.86
2022-07-30T00:33:42.908Z,97.86
2022-07-30T00:36:44.634Z,97.81
2022-07-30T00:39:46.461Z,98.04
2022-07-30T00:42:48.577Z,97.64
2022-07-30T00:45:50.891Z,97.32
2022-07-30T00:48:52.656Z,96.69
2022-07-30T00:51:54.935Z,97.16
2022-07-30T00:54:56.720Z,97.54
2022-07-30T00:57:58.461Z,97.77
2022-07-30T01:01:00.935Z,98.04
2022-07-30T01:04:03.660Z,98.07
2022-07-30T01:07:05.881Z,98.34
2022-07-30T01:10:11.172Z,98.31
2022-07-30T01:13:13.089Z,98.33
2022-07-30T01:16:15.061Z,98.18
2022-07-30T01:19:43.145Z,98.24
2022-07-30T01:22:47.764Z,98.09
2022-07-30T01:26:02.099Z,98.17
2022-07-30T01:29:04.909Z,97.98
2022-07-30T01:32:08.970Z,97.72
2022-07-30T01:35:12.850Z,97.78
2022-07-30T01:38:17.223Z,97.96
2022-07-30T01:41:19.955Z,97.86
2022-07-30T01:44:25.859Z,97.43
2022-07-30T01:47:28.786Z,97.60
2022-07-30T01:50:32.594Z,97.71
2022-07-30T01:53:39.003Z,98.10
2022-07-30T01:56:42.546Z,98.18
2022-07-30T01:59:50.291Z,98.20
2022-07-30T02:02:54.427Z,98.24
2022-07-30T02:06:01.238Z,98.39
2022-07-30T02:09:07.035Z,98.24
2022-07-30T02:12:29.697Z,98.31
2022-07-30T02:15:38.899Z,98.37
2022-07-30T02:18:43.585Z,98.33
2022-07-30T02:21:56.554Z,98.83
2022-07-30T02:25:01.657Z,99.44
2022-07-30T02:28:09.650Z,99.79
2022-07-30T02:31:17.388Z,99.59
2022-07-30T02:34:22.874Z,99.83
2022-07-30T02:37:41.489Z,99.85
2022-07-30T02:40:46.604Z,99.83
2022-07-30T02:43:50.082Z,100.00
2022-07-30T02:46:55.154Z,99.82
2022-07-30T02:50:17.994Z,99.84
2022-07-30T02:53:22.497Z,100.00
2022-07-30T02:56:26.299Z,100.00
2022-07-30T02:59:30.602Z,100.00
2022-07-30T03:02:34.135Z,100.00
2022-07-30T03:05:40.967Z,100.00
2022-07-30T03:08:44.869Z,100.00
2022-07-30T03:11:48.700Z,100.00
2022-07-30T03:14:51.839Z,100.00
2022-07-30T03:17:55.681Z,100.00
2022-07-30T03:21:00.706Z,100.00
2022-07-30T03:24:05.090Z,100.00
2022-07-30T03:27:09.237Z,100.00
2022-07-30T03:30:12.218Z,100.00
2022-07-30T03:33:15.811Z,100.00
2022-07-30T03:36:18.455Z,100.00
2022-07-30T03:39:22.542Z,100.00
2022-07-30T03:42:25.629Z,100.00
2022-07-30T03:45:28.028Z,100.00
2022-07-30T03:48:38.596Z,100.00
2022-07-30T03:51:41.991Z,100.00
2022-07-30T03:54:44.431Z,100.00
2022-07-30T03:58:11.801Z,100.00
2022-07-30T04:01:13.702Z,100.00
2022-07-30T04:04:16.621Z,100.00
2022-07-30T04:07:18.687Z,100.00
2022-07-30T04:10:20.436Z,100.00
2022-07-30T04:13:34.281Z,100.00
2022-07-30T04:16:53.011Z,100.00
2022-07-30T04:20:02.816Z,100.00
2022-07-30T04:23:05.296Z,100.00
2022-07-30T04:26:08.706Z,100.00
2022-07-30T04:29:13.497Z,100.00
2022-07-30T04:32:19.413Z,100.00
2022-07-30T04:35:51.216Z,100.00
2022-07-30T04:39:11.144Z,100.00
2022-07-30T04:42:13.471Z,100.00
2022-07-30T04:45:20.151Z,100.00
2022-07-30T04:48:42.240Z,100.00
2022-07-30T04:51:51.802Z,100.00
2022-07-30T04:54:57.875Z,100.00
2022-07-30T04:58:02.019Z,100.00
2022-07-30T05:01:09.096Z,100.00
2022-07-30T05:04:12.611Z,100.00
2022-07-30T05:07:15.018Z,100.00
2022-07-30T05:10:18.112Z,100.00
2022-07-30T05:13:19.882Z,100.00
2022-07-30T05:16:24.908Z,100.00
2022-07-30T05:19:29.416Z,100.00
2022-07-30T05:22:31.591Z,100.00
2022-07-30T05:25:33.339Z,100.00
2022-07-30T05:28:53.961Z,100.00
2022-07-30T05:32:03.190Z,100.00
2022-07-30T05:35:09.462Z,100.00
2022-07-30T05:38:11.549Z,100.00
2022-07-30T05:41:33.286Z,100.00
2022-07-30T05:44:38.111Z,100.00
2022-07-30T05:47:39.718Z,100.00
2022-07-30T05:50:41.471Z,100.00
2022-07-30T05:53:43.236Z,100.00
2022-07-30T05:56:44.872Z,100.00
2022-07-30T05:59:52.217Z,100.00
2022-07-30T06:02:58.515Z,100.00
2022-07-30T06:06:00.487Z,100.00
2022-07-30T06:09:02.147Z,100.00
2022-07-30T06:12:05.154Z,100.00
2022-07-30T06:15:08.020Z,100.00
2022-07-30T06:18:12.610Z,100.00
2022-07-30T06:21:25.303Z,100.00
2022-07-30T06:24:48.155Z,100.00
2022-07-30T06:27:53.684Z,100.00
2022-07-30T06:30:55.383Z,100.00
2022-07-30T06:34:00.314Z,100.00
2022-07-30T06:37:07.296Z,100.00
2022-07-30T06:40:09.950Z,100.00
2022-07-30T06:43:34.489Z,100.00
2022-07-30T06:46:54.868Z,100.00
2022-07-30T06:50:02.045Z,100.00
2022-07-30T06:53:05.615Z,100.00
2022-07-30T06:56:27.241Z,100.00
2022-07-30T06:59:33.421Z,100.00
2022-07-30T07:03:01.494Z,100.00
2022-07-30T07:06:12.836Z,100.00
2022-07-30T07:09:14.533Z,100.00
2022-07-30T07:12:22.742Z,100.00
2022-07-30T07:15:36.998Z,100.00
2022-07-30T07:18:42.719Z,100.00
2022-07-30T07:21:46.199Z,100.00
2022-07-30T07:24:48.057Z,100.00
2022-07-30T07:28:11.038Z,100.00
2022-07-30T07:32:06.358Z,100.00
2022-07-30T07:34:37.244Z,100.00
2022-07-30T07:37:40.497Z,100.00
2022-07-30T07:40:43.598Z,100.00
2022-07-30T07:43:45.280Z,100.00
2022-07-30T07:46:53.351Z,99.33
2022-07-30T07:49:56.885Z,98.58
2022-07-30T07:52:58.844Z,98.79
2022-07-30T07:56:00.601Z,98.27
2022-07-30T07:59:02.350Z,96.66
2022-07-30T08:02:05.932Z,95.45
2022-07-30T08:05:24.294Z,90.82
2022-07-30T08:08:37.050Z,88.10
2022-07-30T08:12:08.154Z,89.20
2022-07-30T08:18:52.821Z,91.30
2022-07-30T08:22:17.887Z,91.65
2022-07-30T08:25:24.145Z,91.15
2022-07-30T08:28:35.975Z,93.02
2022-07-30T08:31:39.149Z,93.42
2022-07-30T08:34:41.090Z,93.11
2022-07-30T08:37:43.850Z,92.28
2022-07-30T08:40:46.140Z,92.34
2022-07-30T08:43:51.272Z,92.94
2022-07-30T08:46:59.363Z,93.59
2022-07-30T08:50:20.499Z,93.63
2022-07-30T08:53:51.444Z,93.25
2022-07-30T08:56:54.877Z,92.73
2022-07-30T09:00:01.882Z,92.84
2022-07-30T09:03:03.767Z,91.96
2022-07-30T09:06:05.874Z,91.05
2022-07-30T09:09:09.098Z,90.21
2022-07-30T09:12:30.186Z,88.74
2022-07-30T09:15:33.608Z,88.46
2022-07-30T09:18:38.505Z,86.49
2022-07-30T09:21:42.780Z,85.38
2022-07-30T09:24:57.281Z,84.23
2022-07-30T09:27:59.066Z,84.32
2022-07-30T09:31:20.931Z,82.95
2022-07-30T09:34:41.030Z,81.68
2022-07-30T09:37:42.893Z,81.32
2022-07-30T09:41:39.822Z,80.96
2022-07-30T09:44:47.143Z,79.99
2022-07-30T09:47:49.418Z,80.06
2022-07-30T09:50:54.892Z,80.34
2022-07-30T09:54:00.186Z,80.71
2022-07-30T09:57:22.866Z,81.86
2022-07-30T10:00:32.760Z,81.17
2022-07-30T10:03:48.418Z,79.39
2022-07-30T10:07:24.870Z,78.78
2022-07-30T10:10:31.604Z,77.40
2022-07-30T10:13:35.441Z,77.15
2022-07-30T10:16:37.805Z,75.92
2022-07-30T10:19:42.011Z,72.35
2022-07-30T10:23:15.662Z,71.88
2022-07-30T10:26:36.825Z,72.17
2022-07-30T10:30:05.806Z,70.97
2022-07-30T10:33:08.684Z,72.42
2022-07-30T10:36:31.581Z,73.99
2022-07-30T10:39:47.150Z,73.99
2022-07-30T10:43:31.587Z,75.67
2022-07-30T10:47:06.996Z,76.46
2022-07-30T10:50:15.822Z,77.17
2022-07-30T10:53:40.120Z,77.81
2022-07-30T10:56:41.760Z,78.72
2022-07-30T10:59:49.405Z,78.37
2022-07-30T11:03:15.103Z,77.70
2022-07-30T11:06:24.406Z,77.69
2022-07-30T11:09:37.414Z,75.54
2022-07-30T11:12:44.001Z,76.42
2022-07-30T11:15:59.767Z,74.80
2022-07-30T11:19:55.190Z,71.08
2022-07-30T11:22:41.042Z,70.22
2022-07-30T11:25:50.612Z,68.99
2022-07-30T11:28:53.861Z,69.54
2022-07-30T11:31:58.772Z,68.21
2022-07-30T11:35:18.362Z,67.08
2022-07-30T11:38:22.478Z,67.97
2022-07-30T11:41:24.727Z,67.34
2022-07-30T11:44:28.481Z,66.82
2022-07-30T11:47:30.668Z,67.74
2022-07-30T11:50:34.773Z,67.92
2022-07-30T11:53:37.673Z,68.98
2022-07-30T11:57:08.798Z,71.70
2022-07-30T12:00:10.792Z,71.35
2022-07-30T12:03:21.183Z,73.41
2022-07-30T12:06:23.870Z,73.88
2022-07-30T12:09:29.662Z,71.85
2022-07-30T12:12:31.307Z,71.88
2022-07-30T12:15:35.066Z,71.38
2022-07-30T12:18:37.437Z,68.83
2022-07-30T12:21:39.109Z,68.79
2022-07-30T12:24:40.753Z,67.62
2022-07-30T12:27:52.004Z,65.90
2022-07-30T12:30:54.831Z,66.45
2022-07-30T12:33:58.366Z,66.25
2022-07-30T12:37:09.989Z,65.43
2022-07-30T12:40:15.382Z,66.05
2022-07-30T12:43:17.536Z,65.76
2022-07-30T12:46:20.522Z,65.21
2022-07-30T12:49:37.624Z,65.39
2022-07-30T12:52:52.152Z,65.88
2022-07-30T12:55:54.844Z,62.46
2022-07-30T12:58:58.585Z,64.56
2022-07-30T13:02:01.282Z,64.13
2022-07-30T13:05:10.905Z,63.11
2022-07-30T13:08:13.741Z,64.38
2022-07-30T13:11:16.701Z,64.39
2022-07-30T13:14:18.384Z,61.66
2022-07-30T13:17:20.131Z,62.11
2022-07-30T13:20:22.161Z,61.23
2022-07-30T13:23:24.760Z,60.67
2022-07-30T13:26:29.626Z,61.10
2022-07-30T13:29:31.267Z,62.36
2022-07-30T13:32:33.047Z,62.43
2022-07-30T13:35:34.813Z,62.09
2022-07-30T13:38:36.755Z,63.42
2022-07-30T13:41:38.373Z,65.11
2022-07-30T13:44:40.103Z,65.88
2022-07-30T13:47:41.731Z,66.28
2022-07-30T13:50:43.756Z,67.58
2022-07-30T13:53:45.567Z,69.17
2022-07-30T13:56:50.215Z,68.71
2022-07-30T13:59:52.646Z,71.50
2022-07-30T14:02:54.626Z,72.77
2022-07-30T14:05:56.377Z,73.00
2022-07-30T14:09:12.307Z,72.85
2022-07-30T14:12:14.055Z,73.26
2022-07-30T14:15:17.893Z,72.74
2022-07-30T14:18:19.754Z,73.25
2022-07-30T14:21:21.443Z,74.57
2022-07-30T14:24:23.633Z,75.22
2022-07-30T14:27:25.218Z,76.32
2022-07-30T14:30:26.890Z,77.37
2022-07-30T14:33:28.491Z,78.59
2022-07-30T14:36:30.422Z,78.49
2022-07-30T14:39:32.089Z,79.85
2022-07-30T14:42:33.759Z,79.82
2022-07-30T14:45:36.605Z,79.92
2022-07-30T14:48:38.286Z,80.32
2022-07-30T14:51:39.901Z,79.60
2022-07-30T14:54:41.544Z,79.52
2022-07-30T14:57:43.552Z,79.48
2022-07-30T15:00:48.870Z,79.13
2022-07-30T15:03:50.768Z,77.77
2022-07-30T15:06:52.463Z,76.73
2022-07-30T15:09:54.094Z,76.13
2022-07-30T15:12:55.711Z,75.32
2022-07-30T15:15:57.385Z,73.42
2022-07-30T15:18:59.279Z,72.82
2022-07-30T15:22:02.497Z,73.98
2022-07-30T15:25:05.995Z,74.59
2022-07-30T15:28:08.957Z,71.70
2022-07-30T15:31:10.619Z,68.29
2022-07-30T15:34:12.660Z,67.31
2022-07-30T15:37:15.553Z,67.60
2022-07-30T15:40:17.266Z,66.83
2022-07-30T15:43:18.940Z,66.40
2022-07-30T15:46:20.604Z,66.74
2022-07-30T15:49:22.472Z,66.12
2022-07-30T15:52:24.248Z,63.18
2022-07-30T15:55:25.968Z,63.38
2022-07-30T15:58:28.005Z,63.39
2022-07-30T16:01:29.842Z,63.81
2022-07-30T16:04:33.037Z,62.74
2022-07-30T16:07:34.854Z,62.77
2022-07-30T16:10:36.491Z,64.56
2022-07-30T16:13:38.458Z,63.45
2022-07-30T16:16:40.134Z,62.89
2022-07-30T16:19:45.093Z,63.07
2022-07-30T16:22:47.440Z,64.04
2022-07-30T16:25:49.116Z,64.70
2022-07-30T16:28:51.051Z,65.29
2022-07-30T16:31:52.715Z,64.09
2022-07-30T16:34:54.407Z,63.53
2022-07-30T16:37:57.934Z,63.37
2022-07-30T16:40:59.599Z,64.10
2022-07-30T16:44:01.219Z,65.31
2022-07-30T16:47:02.982Z,64.83
2022-07-30T16:50:05.107Z,65.81
2022-07-30T16:53:13.525Z,66.81
2022-07-30T16:56:17.235Z,68.83
2022-07-30T16:59:20.069Z,68.57
2022-07-30T17:02:23.462Z,66.34
2022-07-30T17:05:25.117Z,65.94
2022-07-30T17:08:26.874Z,65.91
2022-07-30T17:11:46.351Z,66.11
2022-07-30T17:14:49.802Z,67.30
2022-07-30T17:17:51.762Z,67.27
2022-07-30T17:20:53.674Z,67.68
2022-07-30T17:23:55.321Z,67.67
2022-07-30T17:26:57.371Z,67.84
2022-07-30T17:30:01.080Z,67.91
2022-07-30T17:33:04.878Z,67.13
2022-07-30T17:36:08.466Z,67.58
2022-07-30T17:39:10.106Z,66.95
2022-07-30T17:42:31.715Z,67.43
2022-07-30T17:45:34.865Z,67.64
2022-07-30T17:48:36.549Z,68.31
2022-07-30T17:51:38.284Z,69.10
2022-07-30T17:54:39.969Z,69.54
2022-07-30T17:57:41.542Z,70.05
2022-07-30T18:00:43.514Z,70.77
2022-07-30T18:03:45.334Z,72.05
2022-07-30T18:06:47.034Z,74.78
2022-07-30T18:09:48.652Z,76.05
2022-07-30T18:12:50.381Z,79.73
2022-07-30T18:15:53.888Z,82.95
2022-07-30T18:18:55.468Z,85.07
2022-07-30T18:21:57.108Z,87.87
2022-07-30T18:25:00.684Z,89.40
2022-07-30T18:28:03.857Z,87.49
2022-07-30T18:31:06.134Z,88.64
2022-07-30T18:34:07.962Z,89.64
2022-07-30T18:37:09.642Z,91.39
2022-07-30T18:40:13.496Z,91.69
2022-07-30T18:43:15.156Z,90.51
2022-07-30T18:46:16.925Z,91.46
2022-07-30T18:49:35.971Z,92.01
2022-07-30T18:52:39.161Z,93.43
2022-07-30T18:55:41.246Z,95.27
2022-07-30T18:58:42.889Z,95.70
2022-07-30T19:01:44.532Z,96.11
2022-07-30T19:04:46.207Z,96.53
2022-07-30T19:07:57.413Z,96.71
2022-07-30T19:11:01.093Z,96.86
2022-07-30T19:14:02.906Z,97.42
2022-07-30T19:17:06.748Z,98.48
2022-07-30T19:20:15.685Z,99.19
2022-07-30T19:23:18.604Z,99.44
2022-07-30T19:26:20.356Z,99.24
2022-07-30T19:29:22.152Z,100.00
2022-07-30T19:32:24.813Z,100.00
2022-07-30T19:35:26.490Z,100.00
2022-07-30T19:38:28.415Z,100.00
2022-07-30T19:41:30.247Z,100.00
2022-07-30T19:44:34.343Z,100.00
2022-07-30T19:47:39.701Z,100.00
2022-07-30T19:50:46.256Z,100.00
2022-07-30T19:53:48.007Z,100.00
2022-07-30T19:56:49.687Z,100.00
2022-07-30T19:59:59.963Z,100.00
2022-07-30T20:03:14.472Z,100.00
2022-07-30T20:06:18.415Z,100.00
2022-07-30T20:09:20.307Z,100.00
2022-07-30T20:12:24.359Z,100.00
2022-07-30T20:15:26.727Z,100.00
2022-07-30T20:18:32.018Z,100.00
2022-07-30T20:21:55.939Z,100.00
2022-07-30T20:24:56.516Z,100.00
2022-07-30T20:27:58.557Z,100.00
2022-07-30T20:31:00.634Z,100.00
2022-07-30T20:34:02.852Z,100.00
2022-07-30T20:37:17.784Z,100.00
2022-07-30T20:40:26.712Z,100.00
2022-07-30T20:43:28.973Z,100.00
2022-07-30T20:46:31.954Z,100.00
2022-07-30T20:49:35.787Z,100.00
2022-07-30T20:52:41.015Z,100.00
2022-07-30T20:55:48.514Z,100.00
2022-07-30T20:58:50.945Z,100.00
2022-07-30T21:01:53.812Z,100.00
2022-07-30T21:04:59.839Z,100.00
2022-07-30T21:08:01.606Z,100.00
2022-07-30T21:11:03.959Z,100.00
2022-07-30T21:14:06.950Z,100.00
2022-07-30T21:17:10.403Z,100.00
2022-07-30T21:20:12.358Z,100.00
2022-07-30T21:23:22.275Z,100.00
2022-07-30T21:26:24.108Z,100.00
2022-07-30T21:29:27.592Z,100.00
2022-07-30T21:32:29.303Z,100.00
2022-07-30T21:35:31.747Z,100.00
2022-07-30T21:38:34.586Z,100.00
2022-07-30T21:41:39.919Z,100.00
2022-07-30T21:44:42.434Z,100.00
2022-07-30T21:47:48.015Z,100.00
2022-07-30T21:50:49.784Z,100.00
2022-07-30T21:53:51.419Z,100.00
2022-07-30T21:56:53.534Z,100.00
2022-07-30T21:59:59.536Z,100.00
2022-07-30T22:03:01.607Z,100.00
2022-07-30T22:06:17.618Z,100.00
2022-07-30T22:09:33.277Z,100.00
2022-07-30T22:12:35.744Z,100.00
2022-07-30T22:15:37.638Z,100.00
2022-07-30T22:18:40.297Z,100.00
2022-07-30T22:21:46.909Z,100.00
2022-07-30T22:24:49.266Z,100.00
2022-07-30T22:27:56.617Z,100.00
2022-07-30T22:30:58.782Z,100.00
2022-07-30T22:34:00.407Z,100.00
2022-07-30T22:37:02.247Z,100.00
2022-07-30T22:40:06.604Z,100.00
2022-07-30T22:43:13.230Z,100.00
2022-07-30T22:46:30.783Z,100.00
2022-07-30T22:49:45.998Z,100.00
2022-07-30T22:52:58.503Z,100.00
2022-07-30T22:56:14.251Z,100.00
2022-07-30T22:59:17.720Z,100.00
2022-07-30T23:02:42.534Z,100.00
2022-07-30T23:05:56.631Z,100.00
2022-07-30T23:08:59.695Z,100.00
2022-07-30T23:12:01.408Z,100.00
2022-07-30T23:15:04.666Z,100.00
2022-07-30T23:18:06.362Z,100.00
2022-07-30T23:21:08.007Z,100.00
2022-07-30T23:24:12.299Z,100.00
2022-07-30T23:27:19.318Z,100.00
2022-07-30T23:30:20.983Z,100.00
2022-07-30T23:33:22.576Z,100.00
2022-07-30T23:36:24.261Z,100.00
2022-07-30T23:39:25.862Z,100.00
2022-07-30T23:42:27.437Z,100.00
2022-07-30T23:45:29.812Z,100.00
2022-07-30T23:48:31.692Z,100.00
2022-07-30T23:51:33.715Z,100.00
2022-07-30T23:54:35.490Z,100.00
2022-07-30T23:57:39.338Z,100.00
